sensor_id;sensor_type;location;lat;lon;timestamp;P1;durP1;ratioP1;P2;durP2;ratioP2
36377;SDS011;22402;42.746;23.606;2023-06-22T00:01:27;10.77;;;9.67;;
36377;SDS011;22402;42.746;23.606;2023-06-22T00:03:53;12.07;;;9.13;;
36377;SDS011;22402;42.746;23.606;2023-06-22T00:06:18;10.20;;;9.00;;
36377;SDS011;22402;42.746;23.606;2023-06-22T00:08:44;9.37;;;8.47;;
36377;SDS011;22402;42.746;23.606;2023-06-22T00:11:10;10.10;;;9.10;;
36377;SDS011;22402;42.746;23.606;2023-06-22T00:13:35;10.00;;;9.00;;
36377;SDS011;22402;42.746;23.606;2023-06-22T00:16:01;9.30;;;8.03;;
36377;SDS011;22402;42.746;23.606;2023-06-22T00:18:26;9.70;;;8.70;;
36377;SDS011;22402;42.746;23.606;2023-06-22T00:20:53;10.03;;;8.87;;
36377;SDS011;22402;42.746;23.606;2023-06-22T00:23:22;10.10;;;9.10;;
36377;SDS011;22402;42.746;23.606;2023-06-22T00:25:48;9.77;;;8.77;;
36377;SDS011;22402;42.746;23.606;2023-06-22T00:28:14;16.53;;;8.67;;
36377;SDS011;22402;42.746;23.606;2023-06-22T00:30:40;10.90;;;7.83;;
36377;SDS011;22402;42.746;23.606;2023-06-22T00:33:05;10.43;;;8.60;;
36377;SDS011;22402;42.746;23.606;2023-06-22T00:35:32;11.87;;;8.93;;
36377;SDS011;22402;42.746;23.606;2023-06-22T00:37:58;10.50;;;8.93;;
36377;SDS011;22402;42.746;23.606;2023-06-22T00:40:29;11.03;;;9.77;;
36377;SDS011;22402;42.746;23.606;2023-06-22T00:42:56;8.20;;;7.40;;
36377;SDS011;22402;42.746;23.606;2023-06-22T00:45:24;9.40;;;8.50;;
36377;SDS011;22402;42.746;23.606;2023-06-22T00:47:53;9.47;;;8.57;;
36377;SDS011;22402;42.746;23.606;2023-06-22T00:50:21;10.33;;;9.20;;
36377;SDS011;22402;42.746;23.606;2023-06-22T00:52:51;10.23;;;9.03;;
36377;SDS011;22402;42.746;23.606;2023-06-22T00:55:19;10.20;;;9.20;;
36377;SDS011;22402;42.746;23.606;2023-06-22T00:57:47;9.93;;;8.63;;
36377;SDS011;22402;42.746;23.606;2023-06-22T01:00:14;8.80;;;7.90;;
36377;SDS011;22402;42.746;23.606;2023-06-22T01:02:44;9.67;;;8.67;;
36377;SDS011;22402;42.746;23.606;2023-06-22T01:05:14;9.50;;;8.50;;
36377;SDS011;22402;42.746;23.606;2023-06-22T01:16:05;12.13;;;9.13;;
36377;SDS011;22402;42.746;23.606;2023-06-22T01:18:40;10.23;;;9.20;;
36377;SDS011;22402;42.746;23.606;2023-06-22T01:21:07;10.27;;;9.10;;
36377;SDS011;22402;42.746;23.606;2023-06-22T01:29:11;12.73;;;9.90;;
36377;SDS011;22402;42.746;23.606;2023-06-22T01:31:39;9.60;;;8.63;;
36377;SDS011;22402;42.746;23.606;2023-06-22T01:34:06;10.30;;;9.27;;
36377;SDS011;22402;42.746;23.606;2023-06-22T01:36:33;8.97;;;8.07;;
36377;SDS011;22402;42.746;23.606;2023-06-22T01:39:00;10.17;;;9.17;;
36377;SDS011;22402;42.746;23.606;2023-06-22T01:41:29;10.40;;;9.10;;
36377;SDS011;22402;42.746;23.606;2023-06-22T01:43:56;9.87;;;8.97;;
36377;SDS011;22402;42.746;23.606;2023-06-22T01:46:22;9.90;;;8.90;;
36377;SDS011;22402;42.746;23.606;2023-06-22T01:48:49;9.93;;;8.93;;
36377;SDS011;22402;42.746;23.606;2023-06-22T01:51:16;10.37;;;9.27;;
36377;SDS011;22402;42.746;23.606;2023-06-22T01:53:41;10.80;;;9.73;;
36377;SDS011;22402;42.746;23.606;2023-06-22T01:56:07;10.73;;;9.73;;
36377;SDS011;22402;42.746;23.606;2023-06-22T01:58:33;12.37;;;9.10;;
36377;SDS011;22402;42.746;23.606;2023-06-22T02:01:03;12.03;;;9.60;;
36377;SDS011;22402;42.746;23.606;2023-06-22T02:03:47;10.73;;;9.63;;
36377;SDS011;22402;42.746;23.606;2023-06-22T02:06:23;10.77;;;9.77;;
36377;SDS011;22402;42.746;23.606;2023-06-22T02:09:02;11.00;;;9.57;;
36377;SDS011;22402;42.746;23.606;2023-06-22T02:11:31;9.67;;;8.77;;
36377;SDS011;22402;42.746;23.606;2023-06-22T02:13:58;11.93;;;9.80;;
36377;SDS011;22402;42.746;23.606;2023-06-22T02:16:25;10.17;;;9.17;;
36377;SDS011;22402;42.746;23.606;2023-06-22T02:18:55;11.63;;;9.53;;
36377;SDS011;22402;42.746;23.606;2023-06-22T02:21:21;10.83;;;9.73;;
36377;SDS011;22402;42.746;23.606;2023-06-22T02:23:47;11.10;;;9.60;;
36377;SDS011;22402;42.746;23.606;2023-06-22T02:26:13;10.30;;;9.40;;
36377;SDS011;22402;42.746;23.606;2023-06-22T02:28:41;13.13;;;10.00;;
36377;SDS011;22402;42.746;23.606;2023-06-22T02:31:06;13.43;;;10.43;;
36377;SDS011;22402;42.746;23.606;2023-06-22T02:33:32;13.27;;;11.50;;
36377;SDS011;22402;42.746;23.606;2023-06-22T02:35:57;11.10;;;9.70;;
36377;SDS011;22402;42.746;23.606;2023-06-22T02:38:23;10.70;;;9.70;;
36377;SDS011;22402;42.746;23.606;2023-06-22T02:40:49;11.03;;;10.00;;
36377;SDS011;22402;42.746;23.606;2023-06-22T02:43:15;12.00;;;10.70;;
36377;SDS011;22402;42.746;23.606;2023-06-22T02:48:18;12.50;;;10.40;;
36377;SDS011;22402;42.746;23.606;2023-06-22T02:50:47;14.43;;;12.40;;
36377;SDS011;22402;42.746;23.606;2023-06-22T02:53:12;14.23;;;12.03;;
36377;SDS011;22402;42.746;23.606;2023-06-22T02:55:38;16.67;;;12.37;;
36377;SDS011;22402;42.746;23.606;2023-06-22T02:58:04;12.90;;;11.60;;
36377;SDS011;22402;42.746;23.606;2023-06-22T03:00:30;13.23;;;11.60;;
36377;SDS011;22402;42.746;23.606;2023-06-22T03:02:57;15.93;;;12.53;;
36377;SDS011;22402;42.746;23.606;2023-06-22T03:05:23;14.30;;;12.47;;
36377;SDS011;22402;42.746;23.606;2023-06-22T03:07:49;14.20;;;11.70;;
36377;SDS011;22402;42.746;23.606;2023-06-22T03:10:16;13.83;;;12.43;;
36377;SDS011;22402;42.746;23.606;2023-06-22T03:12:41;13.07;;;11.37;;
36377;SDS011;22402;42.746;23.606;2023-06-22T03:15:09;11.80;;;10.57;;
36377;SDS011;22402;42.746;23.606;2023-06-22T03:17:35;11.73;;;10.50;;
36377;SDS011;22402;42.746;23.606;2023-06-22T03:22:40;11.90;;;10.73;;
36377;SDS011;22402;42.746;23.606;2023-06-22T03:25:07;11.90;;;10.63;;
36377;SDS011;22402;42.746;23.606;2023-06-22T03:27:38;13.20;;;11.57;;
36377;SDS011;22402;42.746;23.606;2023-06-22T03:30:06;14.43;;;10.03;;
36377;SDS011;22402;42.746;23.606;2023-06-22T03:32:32;12.40;;;10.97;;
36377;SDS011;22402;42.746;23.606;2023-06-22T03:34:59;11.50;;;10.30;;
36377;SDS011;22402;42.746;23.606;2023-06-22T03:37:25;12.30;;;11.00;;
36377;SDS011;22402;42.746;23.606;2023-06-22T03:39:52;12.63;;;10.93;;
36377;SDS011;22402;42.746;23.606;2023-06-22T03:42:17;11.50;;;10.30;;
36377;SDS011;22402;42.746;23.606;2023-06-22T03:44:43;13.20;;;11.10;;
36377;SDS011;22402;42.746;23.606;2023-06-22T03:47:08;14.87;;;10.70;;
36377;SDS011;22402;42.746;23.606;2023-06-22T03:49:34;11.50;;;10.30;;
36377;SDS011;22402;42.746;23.606;2023-06-22T03:52:00;10.80;;;9.80;;
36377;SDS011;22402;42.746;23.606;2023-06-22T03:54:27;9.90;;;8.90;;
36377;SDS011;22402;42.746;23.606;2023-06-22T03:56:57;10.27;;;9.27;;
36377;SDS011;22402;42.746;23.606;2023-06-22T03:59:23;12.70;;;10.57;;
36377;SDS011;22402;42.746;23.606;2023-06-22T04:01:49;11.10;;;10.00;;
36377;SDS011;22402;42.746;23.606;2023-06-22T04:04:15;10.37;;;9.27;;
36377;SDS011;22402;42.746;23.606;2023-06-22T04:06:41;11.07;;;9.90;;
36377;SDS011;22402;42.746;23.606;2023-06-22T04:09:06;11.60;;;10.40;;
36377;SDS011;22402;42.746;23.606;2023-06-22T04:11:32;10.97;;;9.60;;
36377;SDS011;22402;42.746;23.606;2023-06-22T04:13:57;17.23;;;10.70;;
36377;SDS011;22402;42.746;23.606;2023-06-22T04:16:23;12.10;;;10.40;;
36377;SDS011;22402;42.746;23.606;2023-06-22T04:18:48;12.70;;;11.50;;
36377;SDS011;22402;42.746;23.606;2023-06-22T04:21:14;17.87;;;11.90;;
36377;SDS011;22402;42.746;23.606;2023-06-22T04:23:39;14.50;;;11.00;;
36377;SDS011;22402;42.746;23.606;2023-06-22T04:26:05;12.87;;;11.57;;
36377;SDS011;22402;42.746;23.606;2023-06-22T04:28:30;12.90;;;11.57;;
36377;SDS011;22402;42.746;23.606;2023-06-22T04:31:00;12.60;;;11.30;;
36377;SDS011;22402;42.746;23.606;2023-06-22T04:33:28;14.67;;;11.90;;
36377;SDS011;22402;42.746;23.606;2023-06-22T04:35:54;18.00;;;12.57;;
36377;SDS011;22402;42.746;23.606;2023-06-22T04:38:22;13.40;;;12.00;;
36377;SDS011;22402;42.746;23.606;2023-06-22T04:40:48;13.93;;;12.40;;
36377;SDS011;22402;42.746;23.606;2023-06-22T04:43:13;15.27;;;13.13;;
36377;SDS011;22402;42.746;23.606;2023-06-22T04:45:39;14.23;;;12.83;;
36377;SDS011;22402;42.746;23.606;2023-06-22T04:48:05;15.13;;;12.90;;
36377;SDS011;22402;42.746;23.606;2023-06-22T04:50:31;15.27;;;13.67;;
36377;SDS011;22402;42.746;23.606;2023-06-22T04:52:56;14.53;;;13.03;;
36377;SDS011;22402;42.746;23.606;2023-06-22T04:55:23;16.93;;;14.17;;
36377;SDS011;22402;42.746;23.606;2023-06-22T04:57:50;16.53;;;14.90;;
36377;SDS011;22402;42.746;23.606;2023-06-22T05:00:17;17.87;;;13.57;;
36377;SDS011;22402;42.746;23.606;2023-06-22T05:02:48;14.53;;;13.23;;
36377;SDS011;22402;42.746;23.606;2023-06-22T05:05:14;17.13;;;14.30;;
36377;SDS011;22402;42.746;23.606;2023-06-22T05:07:44;15.23;;;13.53;;
36377;SDS011;22402;42.746;23.606;2023-06-22T05:10:12;15.83;;;13.57;;
36377;SDS011;22402;42.746;23.606;2023-06-22T05:12:38;14.47;;;12.93;;
36377;SDS011;22402;42.746;23.606;2023-06-22T05:15:05;22.67;;;12.67;;
36377;SDS011;22402;42.746;23.606;2023-06-22T05:17:31;14.60;;;12.27;;
36377;SDS011;22402;42.746;23.606;2023-06-22T05:19:57;16.40;;;12.70;;
36377;SDS011;22402;42.746;23.606;2023-06-22T05:22:23;13.37;;;11.97;;
36377;SDS011;22402;42.746;23.606;2023-06-22T05:24:48;14.53;;;13.03;;
36377;SDS011;22402;42.746;23.606;2023-06-22T05:27:14;14.80;;;12.57;;
36377;SDS011;22402;42.746;23.606;2023-06-22T05:29:39;18.07;;;12.97;;
36377;SDS011;22402;42.746;23.606;2023-06-22T05:32:05;15.80;;;12.70;;
36377;SDS011;22402;42.746;23.606;2023-06-22T05:34:31;15.10;;;13.40;;
36377;SDS011;22402;42.746;23.606;2023-06-22T05:36:57;14.77;;;13.13;;
36377;SDS011;22402;42.746;23.606;2023-06-22T05:39:25;14.33;;;12.80;;
36377;SDS011;22402;42.746;23.606;2023-06-22T05:41:51;16.33;;;12.00;;
36377;SDS011;22402;42.746;23.606;2023-06-22T05:44:16;13.50;;;12.07;;
36377;SDS011;22402;42.746;23.606;2023-06-22T05:46:42;14.00;;;11.60;;
36377;SDS011;22402;42.746;23.606;2023-06-22T05:49:13;15.23;;;12.10;;
36377;SDS011;22402;42.746;23.606;2023-06-22T05:51:40;14.57;;;12.37;;
36377;SDS011;22402;42.746;23.606;2023-06-22T05:54:06;13.47;;;12.10;;
36377;SDS011;22402;42.746;23.606;2023-06-22T05:56:33;14.00;;;12.00;;
36377;SDS011;22402;42.746;23.606;2023-06-22T05:58:58;12.90;;;10.93;;
36377;SDS011;22402;42.746;23.606;2023-06-22T06:01:24;12.47;;;10.93;;
36377;SDS011;22402;42.746;23.606;2023-06-22T06:03:50;12.47;;;11.17;;
36377;SDS011;22402;42.746;23.606;2023-06-22T06:06:17;11.10;;;9.90;;
36377;SDS011;22402;42.746;23.606;2023-06-22T06:08:45;12.00;;;10.70;;
36377;SDS011;22402;42.746;23.606;2023-06-22T06:11:10;11.10;;;9.80;;
36377;SDS011;22402;42.746;23.606;2023-06-22T06:13:36;12.60;;;10.10;;
36377;SDS011;22402;42.746;23.606;2023-06-22T06:16:02;13.30;;;9.53;;
36377;SDS011;22402;42.746;23.606;2023-06-22T06:18:27;11.03;;;10.03;;
36377;SDS011;22402;42.746;23.606;2023-06-22T06:20:52;12.33;;;11.07;;
36377;SDS011;22402;42.746;23.606;2023-06-22T06:23:18;9.43;;;8.63;;
36377;SDS011;22402;42.746;23.606;2023-06-22T06:25:43;12.97;;;10.30;;
36377;SDS011;22402;42.746;23.606;2023-06-22T06:28:09;12.67;;;9.87;;
36377;SDS011;22402;42.746;23.606;2023-06-22T06:30:34;11.90;;;10.70;;
36377;SDS011;22402;42.746;23.606;2023-06-22T06:33:02;11.07;;;9.50;;
36377;SDS011;22402;42.746;23.606;2023-06-22T06:35:28;11.90;;;10.27;;
36377;SDS011;22402;42.746;23.606;2023-06-22T06:37:53;11.37;;;10.17;;
36377;SDS011;22402;42.746;23.606;2023-06-22T06:40:19;14.63;;;10.40;;
36377;SDS011;22402;42.746;23.606;2023-06-22T06:42:46;11.33;;;10.23;;
36377;SDS011;22402;42.746;23.606;2023-06-22T06:45:15;10.80;;;9.70;;
36377;SDS011;22402;42.746;23.606;2023-06-22T06:47:44;10.80;;;9.10;;
36377;SDS011;22402;42.746;23.606;2023-06-22T06:50:10;10.40;;;9.40;;
36377;SDS011;22402;42.746;23.606;2023-06-22T06:52:35;9.70;;;8.70;;
36377;SDS011;22402;42.746;23.606;2023-06-22T06:55:01;9.57;;;8.70;;
36377;SDS011;22402;42.746;23.606;2023-06-22T06:57:30;11.20;;;9.30;;
36377;SDS011;22402;42.746;23.606;2023-06-22T06:59:56;10.07;;;8.53;;
36377;SDS011;22402;42.746;23.606;2023-06-22T07:02:22;10.90;;;8.20;;
36377;SDS011;22402;42.746;23.606;2023-06-22T07:04:49;9.20;;;8.30;;
36377;SDS011;22402;42.746;23.606;2023-06-22T07:07:14;12.33;;;8.57;;
36377;SDS011;22402;42.746;23.606;2023-06-22T07:09:40;15.23;;;8.37;;
36377;SDS011;22402;42.746;23.606;2023-06-22T07:12:08;9.87;;;8.93;;
36377;SDS011;22402;42.746;23.606;2023-06-22T07:14:34;8.83;;;8.03;;
36377;SDS011;22402;42.746;23.606;2023-06-22T07:16:59;10.00;;;8.57;;
36377;SDS011;22402;42.746;23.606;2023-06-22T07:19:25;8.90;;;7.83;;
36377;SDS011;22402;42.746;23.606;2023-06-22T07:21:51;19.70;;;9.53;;
36377;SDS011;22402;42.746;23.606;2023-06-22T07:24:18;12.97;;;9.30;;
36377;SDS011;22402;42.746;23.606;2023-06-22T07:26:45;9.77;;;8.53;;
36377;SDS011;22402;42.746;23.606;2023-06-22T07:29:13;8.60;;;7.70;;
36377;SDS011;22402;42.746;23.606;2023-06-22T07:31:39;11.30;;;8.83;;
36377;SDS011;22402;42.746;23.606;2023-06-22T07:34:06;8.43;;;7.63;;
36377;SDS011;22402;42.746;23.606;2023-06-22T07:36:32;10.00;;;9.00;;
36377;SDS011;22402;42.746;23.606;2023-06-22T07:38:57;8.83;;;7.40;;
36377;SDS011;22402;42.746;23.606;2023-06-22T07:41:22;9.47;;;8.47;;
36377;SDS011;22402;42.746;23.606;2023-06-22T07:43:48;8.90;;;8.00;;
36377;SDS011;22402;42.746;23.606;2023-06-22T07:46:14;8.53;;;7.60;;
36377;SDS011;22402;42.746;23.606;2023-06-22T07:48:40;9.70;;;8.67;;
36377;SDS011;22402;42.746;23.606;2023-06-22T07:51:07;9.57;;;8.50;;
36377;SDS011;22402;42.746;23.606;2023-06-22T07:53:32;9.30;;;8.40;;
36377;SDS011;22402;42.746;23.606;2023-06-22T07:55:58;11.07;;;9.00;;
36377;SDS011;22402;42.746;23.606;2023-06-22T07:58:24;8.87;;;7.97;;
36377;SDS011;22402;42.746;23.606;2023-06-22T08:00:49;9.17;;;8.27;;
36377;SDS011;22402;42.746;23.606;2023-06-22T08:03:15;7.83;;;6.73;;
36377;SDS011;22402;42.746;23.606;2023-06-22T08:05:41;8.50;;;6.70;;
36377;SDS011;22402;42.746;23.606;2023-06-22T08:08:06;7.60;;;6.50;;
36377;SDS011;22402;42.746;23.606;2023-06-22T08:10:31;8.47;;;6.73;;
36377;SDS011;22402;42.746;23.606;2023-06-22T08:12:58;6.67;;;6.00;;
36377;SDS011;22402;42.746;23.606;2023-06-22T08:15:23;5.87;;;5.30;;
36377;SDS011;22402;42.746;23.606;2023-06-22T08:17:51;5.70;;;5.10;;
36377;SDS011;22402;42.746;23.606;2023-06-22T08:20:17;6.63;;;5.90;;
36377;SDS011;22402;42.746;23.606;2023-06-22T08:22:43;7.10;;;5.17;;
36377;SDS011;22402;42.746;23.606;2023-06-22T08:25:09;5.53;;;5.03;;
36377;SDS011;22402;42.746;23.606;2023-06-22T08:27:35;6.20;;;5.60;;
36377;SDS011;22402;42.746;23.606;2023-06-22T08:30:01;6.33;;;5.40;;
36377;SDS011;22402;42.746;23.606;2023-06-22T08:32:27;5.90;;;5.40;;
36377;SDS011;22402;42.746;23.606;2023-06-22T08:34:56;8.43;;;4.87;;
36377;SDS011;22402;42.746;23.606;2023-06-22T08:37:22;5.57;;;5.07;;
36377;SDS011;22402;42.746;23.606;2023-06-22T08:39:50;10.90;;;4.37;;
36377;SDS011;22402;42.746;23.606;2023-06-22T08:42:15;4.93;;;4.30;;
36377;SDS011;22402;42.746;23.606;2023-06-22T08:44:41;5.77;;;5.27;;
36377;SDS011;22402;42.746;23.606;2023-06-22T08:47:06;5.30;;;4.50;;
36377;SDS011;22402;42.746;23.606;2023-06-22T08:49:32;4.73;;;4.20;;
36377;SDS011;22402;42.746;23.606;2023-06-22T08:51:57;4.80;;;4.20;;
36377;SDS011;22402;42.746;23.606;2023-06-22T08:54:23;4.80;;;4.40;;
36377;SDS011;22402;42.746;23.606;2023-06-22T08:56:48;4.77;;;4.20;;
36377;SDS011;22402;42.746;23.606;2023-06-22T08:59:14;4.03;;;3.63;;
36377;SDS011;22402;42.746;23.606;2023-06-22T09:01:39;4.23;;;3.93;;
36377;SDS011;22402;42.746;23.606;2023-06-22T09:04:05;4.70;;;4.40;;
36377;SDS011;22402;42.746;23.606;2023-06-22T09:06:32;4.10;;;3.80;;
36377;SDS011;22402;42.746;23.606;2023-06-22T09:08:58;4.93;;;4.43;;
36377;SDS011;22402;42.746;23.606;2023-06-22T09:11:26;6.00;;;4.37;;
36377;SDS011;22402;42.746;23.606;2023-06-22T09:13:51;7.73;;;4.10;;
36377;SDS011;22402;42.746;23.606;2023-06-22T09:16:18;6.43;;;4.90;;
36377;SDS011;22402;42.746;23.606;2023-06-22T09:18:47;8.23;;;5.07;;
36377;SDS011;22402;42.746;23.606;2023-06-22T09:21:13;4.60;;;4.20;;
36377;SDS011;22402;42.746;23.606;2023-06-22T09:23:38;4.47;;;4.07;;
36377;SDS011;22402;42.746;23.606;2023-06-22T09:26:04;4.30;;;4.00;;
36377;SDS011;22402;42.746;23.606;2023-06-22T09:28:30;3.43;;;3.23;;
36377;SDS011;22402;42.746;23.606;2023-06-22T09:30:56;3.53;;;3.33;;
36377;SDS011;22402;42.746;23.606;2023-06-22T09:33:24;3.47;;;3.28;;
36377;SDS011;22402;42.746;23.606;2023-06-22T09:35:50;3.50;;;3.30;;
36377;SDS011;22402;42.746;23.606;2023-06-22T09:38:16;3.78;;;3.58;;
36377;SDS011;22402;42.746;23.606;2023-06-22T09:40:41;3.42;;;3.22;;
36377;SDS011;22402;42.746;23.606;2023-06-22T09:43:07;4.28;;;3.78;;
36377;SDS011;22402;42.746;23.606;2023-06-22T09:45:32;3.38;;;3.17;;
36377;SDS011;22402;42.746;23.606;2023-06-22T09:47:58;3.72;;;3.42;;
36377;SDS011;22402;42.746;23.606;2023-06-22T10:03:57;3.50;;;3.30;;
36377;SDS011;22402;42.746;23.606;2023-06-22T10:06:23;12.88;;;3.55;;
36377;SDS011;22402;42.746;23.606;2023-06-22T10:08:50;3.10;;;2.90;;
36377;SDS011;22402;42.746;23.606;2023-06-22T10:11:16;10.45;;;3.40;;
36377;SDS011;22402;42.746;23.606;2023-06-22T10:13:42;2.75;;;2.65;;
36377;SDS011;22402;42.746;23.606;2023-06-22T10:16:07;4.47;;;3.38;;
36377;SDS011;22402;42.746;23.606;2023-06-22T10:18:32;3.50;;;3.20;;
36377;SDS011;22402;42.746;23.606;2023-06-22T10:20:58;3.67;;;3.33;;
36377;SDS011;22402;42.746;23.606;2023-06-22T10:23:23;3.15;;;2.88;;
36377;SDS011;22402;42.746;23.606;2023-06-22T10:25:49;3.10;;;2.90;;
36377;SDS011;22402;42.746;23.606;2023-06-22T10:28:14;5.10;;;3.25;;
36377;SDS011;22402;42.746;23.606;2023-06-22T10:30:40;3.10;;;2.88;;
36377;SDS011;22402;42.746;23.606;2023-06-22T10:33:07;3.05;;;2.95;;
36377;SDS011;22402;42.746;23.606;2023-06-22T10:35:33;3.65;;;3.35;;
36377;SDS011;22402;42.746;23.606;2023-06-22T10:37:58;2.65;;;2.53;;
36377;SDS011;22402;42.746;23.606;2023-06-22T10:40:24;2.92;;;2.72;;
36377;SDS011;22402;42.746;23.606;2023-06-22T10:42:49;3.20;;;3.00;;
36377;SDS011;22402;42.746;23.606;2023-06-22T10:45:15;3.20;;;2.78;;
36377;SDS011;22402;42.746;23.606;2023-06-22T10:47:41;3.10;;;2.78;;
36377;SDS011;22402;42.746;23.606;2023-06-22T10:50:09;3.75;;;3.55;;
36377;SDS011;22402;42.746;23.606;2023-06-22T10:52:35;3.38;;;3.17;;
36377;SDS011;22402;42.746;23.606;2023-06-22T10:55:01;3.92;;;3.28;;
36377;SDS011;22402;42.746;23.606;2023-06-22T10:57:27;3.30;;;3.10;;
36377;SDS011;22402;42.746;23.606;2023-06-22T10:59:52;4.15;;;3.85;;
36377;SDS011;22402;42.746;23.606;2023-06-22T11:02:18;3.63;;;3.33;;
36377;SDS011;22402;42.746;23.606;2023-06-22T11:04:43;3.80;;;3.55;;
36377;SDS011;22402;42.746;23.606;2023-06-22T11:07:09;6.05;;;4.45;;
36377;SDS011;22402;42.746;23.606;2023-06-22T11:09:34;5.07;;;4.63;;
36377;SDS011;22402;42.746;23.606;2023-06-22T11:12:00;5.03;;;4.63;;
36377;SDS011;22402;42.746;23.606;2023-06-22T11:14:25;6.20;;;5.60;;
36377;SDS011;22402;42.746;23.606;2023-06-22T11:16:51;5.70;;;5.20;;
36377;SDS011;22402;42.746;23.606;2023-06-22T11:19:16;6.40;;;5.80;;
36377;SDS011;22402;42.746;23.606;2023-06-22T11:21:42;6.00;;;5.40;;
36377;SDS011;22402;42.746;23.606;2023-06-22T11:24:08;6.27;;;5.77;;
36377;SDS011;22402;42.746;23.606;2023-06-22T11:26:33;6.40;;;5.90;;
36377;SDS011;22402;42.746;23.606;2023-06-22T11:28:59;6.87;;;5.90;;
36377;SDS011;22402;42.746;23.606;2023-06-22T11:31:24;8.17;;;6.70;;
36377;SDS011;22402;42.746;23.606;2023-06-22T11:33:50;6.83;;;5.67;;
36377;SDS011;22402;42.746;23.606;2023-06-22T11:36:15;5.50;;;5.00;;
36377;SDS011;22402;42.746;23.606;2023-06-22T11:38:41;6.03;;;5.53;;
36377;SDS011;22402;42.746;23.606;2023-06-22T11:41:08;5.53;;;5.13;;
36377;SDS011;22402;42.746;23.606;2023-06-22T11:43:34;5.87;;;5.27;;
36377;SDS011;22402;42.746;23.606;2023-06-22T11:46:01;5.23;;;4.73;;
36377;SDS011;22402;42.746;23.606;2023-06-22T11:48:28;7.53;;;5.30;;
36377;SDS011;22402;42.746;23.606;2023-06-22T11:50:53;6.03;;;5.53;;
36377;SDS011;22402;42.746;23.606;2023-06-22T11:53:20;6.20;;;5.70;;
36377;SDS011;22402;42.746;23.606;2023-06-22T11:55:46;6.60;;;5.97;;
36377;SDS011;22402;42.746;23.606;2023-06-22T11:58:12;6.80;;;6.20;;
36377;SDS011;22402;42.746;23.606;2023-06-22T12:00:38;7.07;;;6.47;;
36377;SDS011;22402;42.746;23.606;2023-06-22T12:03:03;6.80;;;6.23;;
36377;SDS011;22402;42.746;23.606;2023-06-22T12:05:29;7.40;;;6.80;;
36377;SDS011;22402;42.746;23.606;2023-06-22T12:07:55;8.50;;;6.87;;
36377;SDS011;22402;42.746;23.606;2023-06-22T12:10:24;10.10;;;8.50;;
36377;SDS011;22402;42.746;23.606;2023-06-22T12:12:51;9.70;;;8.20;;
36377;SDS011;22402;42.746;23.606;2023-06-22T12:15:16;9.43;;;8.50;;
36377;SDS011;22402;42.746;23.606;2023-06-22T12:17:42;11.73;;;7.60;;
36377;SDS011;22402;42.746;23.606;2023-06-22T12:20:07;6.63;;;6.03;;
36377;SDS011;22402;42.746;23.606;2023-06-22T12:22:34;6.37;;;5.50;;
36377;SDS011;22402;42.746;23.606;2023-06-22T12:25:00;6.80;;;6.10;;
36377;SDS011;22402;42.746;23.606;2023-06-22T12:27:26;7.10;;;6.40;;
36377;SDS011;22402;42.746;23.606;2023-06-22T12:29:52;6.43;;;5.87;;
36377;SDS011;22402;42.746;23.606;2023-06-22T12:32:17;6.40;;;5.83;;
36377;SDS011;22402;42.746;23.606;2023-06-22T12:34:43;5.70;;;5.23;;
36377;SDS011;22402;42.746;23.606;2023-06-22T12:37:09;5.70;;;5.20;;
36377;SDS011;22402;42.746;23.606;2023-06-22T12:39:35;5.20;;;4.80;;
36377;SDS011;22402;42.746;23.606;2023-06-22T12:42:00;5.37;;;4.87;;
36377;SDS011;22402;42.746;23.606;2023-06-22T12:44:26;5.50;;;4.90;;
36377;SDS011;22402;42.746;23.606;2023-06-22T12:46:51;5.73;;;5.23;;
36377;SDS011;22402;42.746;23.606;2023-06-22T12:49:17;6.20;;;5.60;;
36377;SDS011;22402;42.746;23.606;2023-06-22T12:51:43;5.70;;;5.30;;
36377;SDS011;22402;42.746;23.606;2023-06-22T12:54:10;6.63;;;6.03;;
36377;SDS011;22402;42.746;23.606;2023-06-22T12:56:36;8.43;;;5.90;;
36377;SDS011;22402;42.746;23.606;2023-06-22T12:59:03;6.33;;;5.80;;
36377;SDS011;22402;42.746;23.606;2023-06-22T13:01:29;6.37;;;5.87;;
36377;SDS011;22402;42.746;23.606;2023-06-22T13:03:55;7.33;;;6.60;;
36377;SDS011;22402;42.746;23.606;2023-06-22T13:06:21;6.40;;;5.80;;
36377;SDS011;22402;42.746;23.606;2023-06-22T13:08:47;7.13;;;6.53;;
36377;SDS011;22402;42.746;23.606;2023-06-22T13:11:12;6.97;;;6.27;;
36377;SDS011;22402;42.746;23.606;2023-06-22T13:13:38;7.20;;;6.40;;
36377;SDS011;22402;42.746;23.606;2023-06-22T13:16:04;6.53;;;6.00;;
36377;SDS011;22402;42.746;23.606;2023-06-22T13:18:29;9.50;;;7.33;;
36377;SDS011;22402;42.746;23.606;2023-06-22T13:20:55;6.83;;;6.23;;
36377;SDS011;22402;42.746;23.606;2023-06-22T13:23:21;12.53;;;7.40;;
36377;SDS011;22402;42.746;23.606;2023-06-22T13:25:47;7.00;;;6.40;;
36377;SDS011;22402;42.746;23.606;2023-06-22T13:28:12;7.57;;;6.87;;
36377;SDS011;22402;42.746;23.606;2023-06-22T13:30:39;8.70;;;7.90;;
36377;SDS011;22402;42.746;23.606;2023-06-22T13:33:05;7.17;;;6.57;;
36377;SDS011;22402;42.746;23.606;2023-06-22T13:35:31;9.40;;;7.30;;
36377;SDS011;22402;42.746;23.606;2023-06-22T13:37:56;8.30;;;7.50;;
36377;SDS011;22402;42.746;23.606;2023-06-22T13:40:22;8.43;;;7.63;;
36377;SDS011;22402;42.746;23.606;2023-06-22T13:42:47;7.90;;;7.10;;
36377;SDS011;22402;42.746;23.606;2023-06-22T13:45:13;8.03;;;7.33;;
36377;SDS011;22402;42.746;23.606;2023-06-22T13:47:39;8.03;;;7.13;;
36377;SDS011;22402;42.746;23.606;2023-06-22T13:50:05;11.23;;;8.50;;
36377;SDS011;22402;42.746;23.606;2023-06-22T13:52:30;8.60;;;7.80;;
36377;SDS011;22402;42.746;23.606;2023-06-22T13:54:56;9.90;;;7.40;;
36377;SDS011;22402;42.746;23.606;2023-06-22T13:57:21;9.50;;;8.50;;
36377;SDS011;22402;42.746;23.606;2023-06-22T13:59:48;8.57;;;7.67;;
36377;SDS011;22402;42.746;23.606;2023-06-22T14:02:13;8.07;;;7.27;;
36377;SDS011;22402;42.746;23.606;2023-06-22T14:04:38;7.87;;;7.07;;
36377;SDS011;22402;42.746;23.606;2023-06-22T14:07:04;10.23;;;7.53;;
36377;SDS011;22402;42.746;23.606;2023-06-22T14:09:30;8.53;;;7.30;;
36377;SDS011;22402;42.746;23.606;2023-06-22T14:11:55;10.63;;;7.93;;
36377;SDS011;22402;42.746;23.606;2023-06-22T14:14:21;10.20;;;8.30;;
36377;SDS011;22402;42.746;23.606;2023-06-22T14:16:46;7.50;;;6.80;;
36377;SDS011;22402;42.746;23.606;2023-06-22T14:19:12;16.33;;;8.43;;
36377;SDS011;22402;42.746;23.606;2023-06-22T14:21:38;10.47;;;8.23;;
36377;SDS011;22402;42.746;23.606;2023-06-22T14:24:04;15.33;;;8.93;;
36377;SDS011;22402;42.746;23.606;2023-06-22T14:26:29;16.40;;;9.33;;
36377;SDS011;22402;42.746;23.606;2023-06-22T14:28:55;18.10;;;9.67;;
36377;SDS011;22402;42.746;23.606;2023-06-22T14:31:21;21.60;;;10.60;;
36377;SDS011;22402;42.746;23.606;2023-06-22T14:33:47;12.47;;;8.97;;
36377;SDS011;22402;42.746;23.606;2023-06-22T14:36:14;12.20;;;9.80;;
36377;SDS011;22402;42.746;23.606;2023-06-22T14:38:43;10.67;;;9.50;;
36377;SDS011;22402;42.746;23.606;2023-06-22T14:41:09;10.60;;;9.57;;
36377;SDS011;22402;42.746;23.606;2023-06-22T14:43:34;10.57;;;9.50;;
36377;SDS011;22402;42.746;23.606;2023-06-22T14:46:00;11.70;;;10.30;;
36377;SDS011;22402;42.746;23.606;2023-06-22T14:48:26;10.30;;;9.10;;
36377;SDS011;22402;42.746;23.606;2023-06-22T14:50:51;14.13;;;9.73;;